sensor_id;sensor_type;location;lat;lon;timestamp;pressure;altitude;pressure_sealevel;temperature;humidity
23241;BME280;11789;53.482;9.862;2023-01-30T00:01:34;101082.28;;;2.20;100.00
23241;BME280;11789;53.482;9.862;2023-01-30T00:04:00;101057.84;;;2.26;100.00
23241;BME280;11789;53.482;9.862;2023-01-30T00:06:26;101067.16;;;2.24;100.00
23241;BME280;11789;53.482;9.862;2023-01-30T00:08:51;101061.19;;;2.24;100.00
23241;BME280;11789;53.482;9.862;2023-01-30T00:11:18;101057.97;;;2.29;100.00
23241;BME280;11789;53.482;9.862;2023-01-30T00:13:44;101048.62;;;2.30;100.00
23241;BME280;11789;53.482;9.862;2023-01-30T00:16:10;101038.59;;;2.34;100.00
23241;BME280;11789;53.482;9.862;2023-01-30T00:18:37;101030.94;;;2.34;100.00
23241;BME280;11789;53.482;9.862;2023-01-30T00:21:04;101022.47;;;2.36;100.00
23241;BME280;11789;53.482;9.862;2023-01-30T00:23:32;101008.06;;;2.38;100.00
23241;BME280;11789;53.482;9.862;2023-01-30T00:25:58;101024.31;;;2.40;100.00
23241;BME280;11789;53.482;9.862;2023-01-30T00:28:24;101023.50;;;2.41;100.00
23241;BME280;11789;53.482;9.862;2023-01-30T00:30:51;101026.09;;;2.42;100.00
23241;BME280;11789;53.482;9.862;2023-01-30T00:33:19;101019.31;;;2.43;100.00
23241;BME280;11789;53.482;9.862;2023-01-30T00:35:45;101006.66;;;2.46;100.00
23241;BME280;11789;53.482;9.862;2023-01-30T00:38:12;101010.09;;;2.46;100.00
23241;BME280;11789;53.482;9.862;2023-01-30T00:40:37;100996.56;;;2.49;100.00
23241;BME280;11789;53.482;9.862;2023-01-30T00:43:03;100993.13;;;2.48;100.00
23241;BME280;11789;53.482;9.862;2023-01-30T00:45:49;100973.66;;;2.50;100.00
23241;BME280;11789;53.482;9.862;2023-01-30T00:48:35;100964.31;;;2.51;100.00
23241;BME280;11789;53.482;9.862;2023-01-30T00:51:01;100965.22;;;2.53;100.00
23241;BME280;11789;53.482;9.862;2023-01-30T00:53:27;100958.50;;;2.55;100.00
23241;BME280;11789;53.482;9.862;2023-01-30T00:55:53;100952.56;;;2.56;100.00
23241;BME280;11789;53.482;9.862;2023-01-30T00:58:19;100932.28;;;2.59;100.00
23241;BME280;11789;53.482;9.862;2023-01-30T01:00:45;100927.19;;;2.60;100.00
23241;BME280;11789;53.482;9.862;2023-01-30T01:03:10;100923.78;;;2.60;100.00
23241;BME280;11789;53.482;9.862;2023-01-30T01:05:35;100917.84;;;2.61;100.00
23241;BME280;11789;53.482;9.862;2023-01-30T01:08:01;100917.84;;;2.61;100.00
23241;BME280;11789;53.482;9.862;2023-01-30T01:10:27;100917.97;;;2.64;100.00
23241;BME280;11789;53.482;9.862;2023-01-30T01:12:52;100922.22;;;2.64;100.00
23241;BME280;11789;53.482;9.862;2023-01-30T01:15:19;100902.81;;;2.69;100.00
23241;BME280;11789;53.482;9.862;2023-01-30T01:17:45;100906.31;;;2.72;100.00
23241;BME280;11789;53.482;9.862;2023-01-30T01:20:10;100896.16;;;2.74;100.00
23241;BME280;11789;53.482;9.862;2023-01-30T01:22:37;100899.56;;;2.74;100.00
23241;BME280;11789;53.482;9.862;2023-01-30T01:25:03;100888.50;;;2.74;100.00
23241;BME280;11789;53.482;9.862;2023-01-30T01:27:28;100880.87;;;2.75;100.00
23241;BME280;11789;53.482;9.862;2023-01-30T01:29:54;100882.72;;;2.79;100.00
23241;BME280;11789;53.482;9.862;2023-01-30T01:32:20;100880.31;;;2.84;100.00
23241;BME280;11789;53.482;9.862;2023-01-30T01:34:46;100864.19;;;2.86;100.00
23241;BME280;11789;53.482;9.862;2023-01-30T01:37:11;100862.53;;;2.89;100.00
23241;BME280;11789;53.482;9.862;2023-01-30T01:39:37;100866.03;;;2.91;100.00
23241;BME280;11789;53.482;9.862;2023-01-30T01:42:23;100857.53;;;2.92;100.00
23241;BME280;11789;53.482;9.862;2023-01-30T01:47:24;100849.31;;;3.00;100.00
23241;BME280;11789;53.482;9.862;2023-01-30T01:49:49;100843.41;;;3.03;100.00
23241;BME280;11789;53.482;9.862;2023-01-30T01:52:15;100839.16;;;3.03;100.00
23241;BME280;11789;53.482;9.862;2023-01-30T01:54:47;100836.59;;;3.03;100.00
23241;BME280;11789;53.482;9.862;2023-01-30T01:57:18;100824.75;;;3.05;100.00
23241;BME280;11789;53.482;9.862;2023-01-30T02:00:00;100823.97;;;3.08;100.00
23241;BME280;11789;53.482;9.862;2023-01-30T02:02:28;100822.25;;;3.07;100.00
23241;BME280;11789;53.482;9.862;2023-01-30T02:04:56;100823.97;;;3.08;100.00
23241;BME280;11789;53.482;9.862;2023-01-30T02:07:28;100817.16;;;3.08;100.00
23241;BME280;11789;53.482;9.862;2023-01-30T02:09:56;100817.13;;;3.07;100.00
23241;BME280;11789;53.482;9.862;2023-01-30T02:12:23;100821.41;;;3.08;100.00
23241;BME280;11789;53.482;9.862;2023-01-30T02:14:49;100812.87;;;3.07;100.00
23241;BME280;11789;53.482;9.862;2023-01-30T02:17:15;100802.69;;;3.07;100.00
23241;BME280;11789;53.482;9.862;2023-01-30T02:36:20;100770.72;;;3.22;100.00
23241;BME280;11789;53.482;9.862;2023-01-30T02:38:59;100769.88;;;3.21;100.00
23241;BME280;11789;53.482;9.862;2023-01-30T02:44:17;100757.34;;;3.30;100.00
23241;BME280;11789;53.482;9.862;2023-01-30T02:46:56;100769.28;;;3.31;100.00
23241;BME280;11789;53.482;9.862;2023-01-30T02:49:29;100757.41;;;3.33;100.00
23241;BME280;11789;53.482;9.862;2023-01-30T02:51:58;100751.53;;;3.36;100.00
23241;BME280;11789;53.482;9.862;2023-01-30T02:54:25;100750.81;;;3.42;100.00
23241;BME280;11789;53.482;9.862;2023-01-30T02:56:53;100737.94;;;3.38;100.00
23241;BME280;11789;53.482;9.862;2023-01-30T02:59:31;100735.56;;;3.45;100.00
23241;BME280;11789;53.482;9.862;2023-01-30T03:05:07;100734.88;;;3.50;100.00
23241;BME280;11789;53.482;9.862;2023-01-30T03:07:43;100725.63;;;3.55;100.00
23241;BME280;11789;53.482;9.862;2023-01-30T03:10:27;100722.28;;;3.59;100.00
23241;BME280;11789;53.482;9.862;2023-01-30T03:17:58;100703.59;;;3.60;100.00
23241;BME280;11789;53.482;9.862;2023-01-30T03:20:24;100699.38;;;3.62;100.00
23241;BME280;11789;53.482;9.862;2023-01-30T03:22:49;100700.25;;;3.63;100.00
23241;BME280;11789;53.482;9.862;2023-01-30T03:25:19;100712.28;;;3.67;100.00
23241;BME280;11789;53.482;9.862;2023-01-30T03:27:45;100701.25;;;3.70;100.00
23241;BME280;11789;53.482;9.862;2023-01-30T03:30:11;100693.56;;;3.68;100.00
23241;BME280;11789;53.482;9.862;2023-01-30T03:32:37;100691.09;;;3.71;100.00
23241;BME280;11789;53.482;9.862;2023-01-30T03:35:03;100681.72;;;3.72;100.00
23241;BME280;11789;53.482;9.862;2023-01-30T03:37:28;100687.69;;;3.72;100.00
23241;BME280;11789;53.482;9.862;2023-01-30T03:39:54;100686.03;;;3.74;100.00
23241;BME280;11789;53.482;9.862;2023-01-30T03:42:19;100690.34;;;3.75;100.00
23241;BME280;11789;53.482;9.862;2023-01-30T03:44:45;100683.53;;;3.76;100.00
23241;BME280;11789;53.482;9.862;2023-01-30T03:47:10;100681.00;;;3.77;100.00
23241;BME280;11789;53.482;9.862;2023-01-30T03:49:36;100667.41;;;3.80;100.00
23241;BME280;11789;53.482;9.862;2023-01-30T03:52:01;100671.75;;;3.82;100.00
23241;BME280;11789;53.482;9.862;2023-01-30T03:54:27;100676.88;;;3.84;100.00
23241;BME280;11789;53.482;9.862;2023-01-30T03:56:52;100673.47;;;3.83;100.00
23241;BME280;11789;53.482;9.862;2023-01-30T03:59:18;100664.16;;;3.85;100.00
23241;BME280;11789;53.482;9.862;2023-01-30T04:01:43;100653.13;;;3.88;100.00
23241;BME280;11789;53.482;9.862;2023-01-30T04:04:09;100654.00;;;3.90;100.00
23241;BME280;11789;53.482;9.862;2023-01-30T04:06:34;100654.91;;;3.90;100.00
23241;BME280;11789;53.482;9.862;2023-01-30T04:08:59;100663.44;;;3.93;100.00
23241;BME280;11789;53.482;9.862;2023-01-30T04:11:25;100660.06;;;3.94;100.00
23241;BME280;11789;53.482;9.862;2023-01-30T04:13:50;100653.22;;;3.93;100.00
23241;BME280;11789;53.482;9.862;2023-01-30T04:16:24;100659.19;;;3.93;100.00
23241;BME280;11789;53.482;9.862;2023-01-30T04:18:50;100642.19;;;3.95;100.00
23241;BME280;11789;53.482;9.862;2023-01-30T04:21:16;100648.22;;;3.97;100.00
23241;BME280;11789;53.482;9.862;2023-01-30T04:23:41;100646.53;;;3.98;100.00
23241;BME280;11789;53.482;9.862;2023-01-30T04:26:07;100640.56;;;3.99;100.00
23241;BME280;11789;53.482;9.862;2023-01-30T04:28:34;100638.03;;;4.00;100.00
23241;BME280;11789;53.482;9.862;2023-01-30T04:31:00;100653.34;;;3.99;100.00
23241;BME280;11789;53.482;9.862;2023-01-30T04:33:25;100664.50;;;4.01;100.00
23241;BME280;11789;53.482;9.862;2023-01-30T04:35:56;100668.78;;;4.02;100.00
23241;BME280;11789;53.482;9.862;2023-01-30T04:38:22;100654.28;;;4.02;100.00
23241;BME280;11789;53.482;9.862;2023-01-30T04:40:49;100654.28;;;4.02;100.00
23241;BME280;11789;53.482;9.862;2023-01-30T04:43:15;100660.25;;;4.01;100.00
23241;BME280;11789;53.482;9.862;2023-01-30T04:45:45;100650.00;;;4.01;100.00
23241;BME280;11789;53.482;9.862;2023-01-30T04:48:11;100658.50;;;4.00;100.00
23241;BME280;11789;53.482;9.862;2023-01-30T04:50:37;100652.47;;;3.97;100.00
23241;BME280;11789;53.482;9.862;2023-01-30T04:53:03;100664.41;;;3.96;100.00
23241;BME280;11789;53.482;9.862;2023-01-30T04:55:29;100650.75;;;3.96;100.00
23241;BME280;11789;53.482;9.862;2023-01-30T04:57:54;100660.09;;;3.95;100.00
23241;BME280;11789;53.482;9.862;2023-01-30T05:00:20;100648.09;;;3.93;100.00
23241;BME280;11789;53.482;9.862;2023-01-30T05:02:45;100646.38;;;3.92;100.00
23241;BME280;11789;53.482;9.862;2023-01-30T05:05:11;100652.34;;;3.90;100.00
23241;BME280;11789;53.482;9.862;2023-01-30T05:07:36;100650.63;;;3.91;100.00
23241;BME280;11789;53.482;9.862;2023-01-30T05:10:02;100640.34;;;3.89;100.00
23241;BME280;11789;53.482;9.862;2023-01-30T05:12:28;100641.19;;;3.88;100.00
23241;BME280;11789;53.482;9.862;2023-01-30T05:14:55;100649.78;;;3.90;100.00
23241;BME280;11789;53.482;9.862;2023-01-30T05:17:20;100655.69;;;3.89;100.00
23241;BME280;11789;53.482;9.862;2023-01-30T05:19:45;100650.59;;;3.89;100.00
23241;BME280;11789;53.482;9.862;2023-01-30T05:22:11;100642.84;;;3.86;100.00
23241;BME280;11789;53.482;9.862;2023-01-30T05:24:36;100647.97;;;3.86;100.00
23241;BME280;11789;53.482;9.862;2023-01-30T05:27:02;100653.87;;;3.84;100.00
23241;BME280;11789;53.482;9.862;2023-01-30T05:29:28;100658.09;;;3.82;100.00
23241;BME280;11789;53.482;9.862;2023-01-30T05:31:53;100658.94;;;3.81;100.00
23241;BME280;11789;53.482;9.862;2023-01-30T05:34:18;100646.09;;;3.79;100.00
23241;BME280;11789;53.482;9.862;2023-01-30T05:36:44;100647.78;;;3.79;100.00
23241;BME280;11789;53.482;9.862;2023-01-30T05:39:10;100657.13;;;3.77;100.00
23241;BME280;11789;53.482;9.862;2023-01-30T05:41:35;100660.44;;;3.74;100.00
23241;BME280;11789;53.482;9.862;2023-01-30T05:44:01;100657.00;;;3.71;100.00
23241;BME280;11789;53.482;9.862;2023-01-30T05:46:26;100649.19;;;3.66;100.00
23241;BME280;11789;53.482;9.862;2023-01-30T05:48:51;100662.81;;;3.65;100.00
23241;BME280;11789;53.482;9.862;2023-01-30T05:51:22;100659.31;;;3.61;100.00
23241;BME280;11789;53.482;9.862;2023-01-30T05:53:48;100665.19;;;3.59;100.00
23241;BME280;11789;53.482;9.862;2023-01-30T05:56:14;100660.94;;;3.58;100.00
23241;BME280;11789;53.482;9.862;2023-01-30T05:58:39;100659.19;;;3.55;100.00
23241;BME280;11789;53.482;9.862;2023-01-30T06:01:07;100659.12;;;3.54;100.00
23241;BME280;11789;53.482;9.862;2023-01-30T06:03:44;100653.13;;;3.52;100.00
23241;BME280;11789;53.482;9.862;2023-01-30T06:06:11;100641.94;;;3.48;100.00
23241;BME280;11789;53.482;9.862;2023-01-30T06:08:36;100635.94;;;3.46;100.00
23241;BME280;11789;53.482;9.862;2023-01-30T06:11:05;100631.59;;;3.44;100.00
23241;BME280;11789;53.482;9.862;2023-01-30T06:13:31;100637.47;;;3.39;100.00
23241;BME280;11789;53.482;9.862;2023-01-30T06:15:57;100639.12;;;3.37;100.00
23241;BME280;11789;53.482;9.862;2023-01-30T06:18:22;100641.72;;;3.39;100.00
23241;BME280;11789;53.482;9.862;2023-01-30T06:20:52;100640.91;;;3.40;100.00
23241;BME280;11789;53.482;9.862;2023-01-30T06:23:18;100642.62;;;3.41;100.00
23241;BME280;11789;53.482;9.862;2023-01-30T06:25:48;100651.13;;;3.40;100.00
23241;BME280;11789;53.482;9.862;2023-01-30T06:28:14;100658.81;;;3.40;100.00
23241;BME280;11789;53.482;9.862;2023-01-30T06:30:40;100656.16;;;3.37;100.00
23241;BME280;11789;53.482;9.862;2023-01-30T06:33:06;100656.12;;;3.35;100.00
23241;BME280;11789;53.482;9.862;2023-01-30T06:35:32;100664.59;;;3.34;100.00
23241;BME280;11789;53.482;9.862;2023-01-30T06:37:57;100672.25;;;3.34;100.00
23241;BME280;11789;53.482;9.862;2023-01-30T06:40:23;100678.19;;;3.33;100.00
23241;BME280;11789;53.482;9.862;2023-01-30T06:42:49;100684.13;;;3.32;100.00
23241;BME280;11789;53.482;9.862;2023-01-30T06:45:16;100679.84;;;3.30;100.00
23241;BME280;11789;53.482;9.862;2023-01-30T06:47:48;100679.75;;;3.27;100.00
23241;BME280;11789;53.482;9.862;2023-01-30T06:50:15;100681.34;;;3.23;100.00
23241;BME280;11789;53.482;9.862;2023-01-30T06:52:46;100688.13;;;3.21;100.00
23241;BME280;11789;53.482;9.862;2023-01-30T06:55:16;100677.91;;;3.21;100.00
23241;BME280;11789;53.482;9.862;2023-01-30T06:57:42;100688.09;;;3.20;100.00
23241;BME280;11789;53.482;9.862;2023-01-30T07:00:13;100685.47;;;3.18;100.00
23241;BME280;11789;53.482;9.862;2023-01-30T07:02:39;100686.31;;;3.17;100.00
23241;BME280;11789;53.482;9.862;2023-01-30T07:05:07;100687.87;;;3.12;100.00
23241;BME280;11789;53.482;9.862;2023-01-30T07:07:33;100683.59;;;3.11;100.00
23241;BME280;11789;53.482;9.862;2023-01-30T07:10:00;100686.16;;;3.11;100.00
23241;BME280;11789;53.482;9.862;2023-01-30T07:12:26;100695.53;;;3.12;100.00
23241;BME280;11789;53.482;9.862;2023-01-30T07:14:52;100700.63;;;3.12;100.00
23241;BME280;11789;53.482;9.862;2023-01-30T07:17:19;100694.66;;;3.11;100.00
23241;BME280;11789;53.482;9.862;2023-01-30T07:19:44;100688.81;;;3.16;100.00
23241;BME280;11789;53.482;9.862;2023-01-30T07:22:10;100694.06;;;3.20;100.00
23241;BME280;11789;53.482;9.862;2023-01-30T07:24:36;100701.78;;;3.23;100.00
23241;BME280;11789;53.482;9.862;2023-01-30T07:27:06;100686.50;;;3.25;100.00
23241;BME280;11789;53.482;9.862;2023-01-30T07:29:34;100688.25;;;3.26;100.00
23241;BME280;11789;53.482;9.862;2023-01-30T07:31:59;100688.25;;;3.26;100.00
23241;BME280;11789;53.482;9.862;2023-01-30T07:34:24;100683.97;;;3.25;100.00
23241;BME280;11789;53.482;9.862;2023-01-30T07:36:50;100691.63;;;3.25;100.00
23241;BME280;11789;53.482;9.862;2023-01-30T07:39:15;100685.75;;;3.29;100.00
23241;BME280;11789;53.482;9.862;2023-01-30T07:41:41;100679.00;;;3.31;100.00
23241;BME280;11789;53.482;9.862;2023-01-30T07:44:06;100675.66;;;3.33;100.00
23241;BME280;11789;53.482;9.862;2023-01-30T07:46:32;100683.41;;;3.36;100.00
23241;BME280;11789;53.482;9.862;2023-01-30T07:49:08;100672.38;;;3.39;100.00
23241;BME280;11789;53.482;9.862;2023-01-30T07:51:34;100665.69;;;3.44;100.00
23241;BME280;11789;53.482;9.862;2023-01-30T07:54:00;100668.47;;;3.53;100.00
23241;BME280;11789;53.482;9.862;2023-01-30T07:56:27;100674.81;;;3.69;100.00
23241;BME280;11789;53.482;9.862;2023-01-30T07:58:54;100681.56;;;4.02;100.00
23241;BME280;11789;53.482;9.862;2023-01-30T08:01:19;100681.31;;;4.29;100.00
23241;BME280;11789;53.482;9.862;2023-01-30T08:03:45;100682.50;;;4.45;100.00
23241;BME280;11789;53.482;9.862;2023-01-30T08:06:11;100689.50;;;4.95;100.00
23241;BME280;11789;53.482;9.862;2023-01-30T08:08:38;100677.44;;;4.90;100.00
23241;BME280;11789;53.482;9.862;2023-01-30T08:11:04;100683.75;;;4.63;100.00
23241;BME280;11789;53.482;9.862;2023-01-30T08:13:30;100676.63;;;4.50;100.00
23241;BME280;11789;53.482;9.862;2023-01-30T08:15:58;100683.91;;;4.30;100.00
23241;BME280;11789;53.482;9.862;2023-01-30T08:18:24;100678.34;;;4.10;100.00
23241;BME280;11789;53.482;9.862;2023-01-30T08:20:49;100677.13;;;3.95;100.00
23241;BME280;11789;53.482;9.862;2023-01-30T08:23:15;100686.28;;;3.85;100.00
23241;BME280;11789;53.482;9.862;2023-01-30T08:25:40;100694.63;;;3.78;100.00
23241;BME280;11789;53.482;9.862;2023-01-30T08:28:06;100698.00;;;3.75;100.00
23241;BME280;11789;53.482;9.862;2023-01-30T08:30:31;100692.81;;;3.72;100.00
23241;BME280;11789;53.482;9.862;2023-01-30T08:32:57;100700.44;;;3.71;100.00
23241;BME280;11789;53.482;9.862;2023-01-30T08:35:23;100703.03;;;3.72;100.00
23241;BME280;11789;53.482;9.862;2023-01-30T08:37:48;100714.16;;;3.74;100.00
23241;BME280;11789;53.482;9.862;2023-01-30T08:40:14;100702.34;;;3.79;100.00
23241;BME280;11789;53.482;9.862;2023-01-30T08:42:42;100701.59;;;3.83;100.00
23241;BME280;11789;53.482;9.862;2023-01-30T08:45:08;100703.28;;;3.83;100.00
23241;BME280;11789;53.482;9.862;2023-01-30T08:47:34;100706.72;;;3.85;100.00
23241;BME280;11789;53.482;9.862;2023-01-30T08:50:00;100705.09;;;3.87;100.00
23241;BME280;11789;53.482;9.862;2023-01-30T08:52:25;100702.53;;;3.87;100.00
23241;BME280;11789;53.482;9.862;2023-01-30T08:54:51;100706.03;;;3.90;100.00
23241;BME280;11789;53.482;9.862;2023-01-30T08:57:16;100706.94;;;3.93;100.00
23241;BME280;11789;53.482;9.862;2023-01-30T08:59:42;100709.50;;;3.93;100.00
23241;BME280;11789;53.482;9.862;2023-01-30T09:02:11;100693.31;;;3.94;100.00
23241;BME280;11789;53.482;9.862;2023-01-30T09:04:37;100692.56;;;3.98;100.00
23241;BME280;11789;53.482;9.862;2023-01-30T09:07:03;100690.94;;;4.01;100.00
23241;BME280;11789;53.482;9.862;2023-01-30T09:09:29;100680.94;;;4.12;100.00
23241;BME280;11789;53.482;9.862;2023-01-30T09:11:55;100692.88;;;4.11;100.00
23241;BME280;11789;53.482;9.862;2023-01-30T09:14:20;100685.16;;;4.10;100.00
23241;BME280;11789;53.482;9.862;2023-01-30T09:16:46;100678.28;;;4.07;100.00
23241;BME280;11789;53.482;9.862;2023-01-30T09:19:12;100685.00;;;4.04;100.00
23241;BME280;11789;53.482;9.862;2023-01-30T09:21:38;100682.44;;;4.02;100.00
23241;BME280;11789;53.482;9.862;2023-01-30T09:24:04;100696.06;;;4.01;100.00
23241;BME280;11789;53.482;9.862;2023-01-30T09:26:30;100680.75;;;4.04;100.00
23241;BME280;11789;53.482;9.862;2023-01-30T09:28:55;100669.75;;;4.07;100.00
23241;BME280;11789;53.482;9.862;2023-01-30T09:31:21;100683.50;;;4.12;100.00
23241;BME280;11789;53.482;9.862;2023-01-30T09:33:47;100670.75;;;4.13;100.00
23241;BME280;11789;53.482;9.862;2023-01-30T09:36:12;100665.00;;;4.24;100.00
23241;BME280;11789;53.482;9.862;2023-01-30T09:38:37;100677.19;;;4.35;100.00
23241;BME280;11789;53.482;9.862;2023-01-30T09:41:37;100674.78;;;4.41;100.00
23241;BME280;11789;53.482;9.862;2023-01-30T09:46:58;100658.50;;;4.39;100.00
23241;BME280;11789;53.482;9.862;2023-01-30T09:55:17;100648.69;;;5.06;100.00
23241;BME280;11789;53.482;9.862;2023-01-30T09:57:46;100657.63;;;4.81;100.00
23241;BME280;11789;53.482;9.862;2023-01-30T10:03:05;100647.13;;;4.67;100.00
23241;BME280;11789;53.482;9.862;2023-01-30T10:05:36;100639.41;;;4.66;100.00
23241;BME280;11789;53.482;9.862;2023-01-30T10:14:09;100625.12;;;4.77;100.00
23241;BME280;11789;53.482;9.862;2023-01-30T10:16:41;100620.81;;;4.76;100.00
23241;BME280;11789;53.482;9.862;2023-01-30T10:27:10;100583.41;;;4.83;100.00
23241;BME280;11789;53.482;9.862;2023-01-30T10:29:40;100576.69;;;4.89;100.00
23241;BME280;11789;53.482;9.862;2023-01-30T10:32:30;100586.41;;;5.09;99.96
23241;BME280;11789;53.482;9.862;2023-01-30T10:35:04;100568.75;;;5.26;100.00
23241;BME280;11789;53.482;9.862;2023-01-30T10:38:01;100585.06;;;5.29;98.85
23241;BME280;11789;53.482;9.862;2023-01-30T10:43:44;100573.25;;;5.40;97.63
23241;BME280;11789;53.482;9.862;2023-01-30T10:49:14;100587.31;;;5.67;96.26
23241;BME280;11789;53.482;9.862;2023-01-30T10:51:59;100582.38;;;5.79;95.87
23241;BME280;11789;53.482;9.862;2023-01-30T10:54:41;100577.13;;;5.70;96.58
23241;BME280;11789;53.482;9.862;2023-01-30T11:02:41;100583.97;;;5.16;98.53
23241;BME280;11789;53.482;9.862;2023-01-30T11:05:15;100607.50;;;4.94;100.00
23241;BME280;11789;53.482;9.862;2023-01-30T11:07:44;100611.41;;;4.75;100.00
23241;BME280;11789;53.482;9.862;2023-01-30T11:10:23;100640.81;;;4.50;100.00
23241;BME280;11789;53.482;9.862;2023-01-30T11:13:18;100643.78;;;4.29;100.00
23241;BME280;11789;53.482;9.862;2023-01-30T11:15:46;100664.75;;;4.13;100.00
23241;BME280;11789;53.482;9.862;2023-01-30T11:18:15;100674.50;;;3.92;100.00
23241;BME280;11789;53.482;9.862;2023-01-30T11:20:43;100682.50;;;3.69;100.00
23241;BME280;11789;53.482;9.862;2023-01-30T11:23:25;100675.22;;;3.50;100.00
23241;BME280;11789;53.482;9.862;2023-01-30T11:25:56;100663.69;;;3.32;100.00
23241;BME280;11789;53.482;9.862;2023-01-30T11:28:23;100674.59;;;3.25;100.00
23241;BME280;11789;53.482;9.862;2023-01-30T11:30:56;100664.19;;;3.19;100.00
23241;BME280;11789;53.482;9.862;2023-01-30T11:33:35;100673.63;;;3.20;100.00
23241;BME280;11789;53.482;9.862;2023-01-30T11:36:02;100677.78;;;3.17;100.00
23241;BME280;11789;53.482;9.862;2023-01-30T11:38:30;100680.34;;;3.17;100.00
23241;BME280;11789;53.482;9.862;2023-01-30T11:41:20;100674.34;;;3.16;100.00
23241;BME280;11789;53.482;9.862;2023-01-30T11:43:46;100676.09;;;3.17;100.00
23241;BME280;11789;53.482;9.862;2023-01-30T11:46:16;100681.19;;;3.17;100.00
23241;BME280;11789;53.482;9.862;2023-01-30T11:48:49;100672.78;;;3.21;100.00
23241;BME280;11789;53.482;9.862;2023-01-30T11:51:19;100669.66;;;3.31;100.00
23241;BME280;11789;53.482;9.862;2023-01-30T11:53:57;100656.03;;;3.32;100.00
23241;BME280;11789;53.482;9.862;2023-01-30T11:56:33;100664.91;;;3.47;100.00
23241;BME280;11789;53.482;9.862;2023-01-30T11:59:04;100655.16;;;3.65;100.00
23241;BME280;11789;53.482;9.862;2023-01-30T12:01:33;100643.41;;;3.73;100.00
23241;BME280;11789;53.482;9.862;2023-01-30T12:04:00;100631.59;;;3.78;100.00
23241;BME280;11789;53.482;9.862;2023-01-30T12:06:32;100634.16;;;3.80;100.00
23241;BME280;11789;53.482;9.862;2023-01-30T12:08:58;100632.50;;;3.80;100.00
23241;BME280;11789;53.482;9.862;2023-01-30T12:17:02;100622.22;;;3.79;100.00
23241;BME280;11789;53.482;9.862;2023-01-30T12:25:20;100621.69;;;3.56;100.00
23241;BME280;11789;53.482;9.862;2023-01-30T12:30:38;100613.81;;;3.47;100.00
23241;BME280;11789;53.482;9.862;2023-01-30T12:33:11;100635.00;;;3.43;100.00
23241;BME280;11789;53.482;9.862;2023-01-30T12:38:22;100624.41;;;3.27;100.00
23241;BME280;11789;53.482;9.862;2023-01-30T12:41:13;100636.34;;;3.28;100.00
23241;BME280;11789;53.482;9.862;2023-01-30T12:46:27;100645.19;;;3.41;100.00
23241;BME280;11789;53.482;9.862;2023-01-30T12:52:03;100659.06;;;3.51;100.00
23241;BME280;11789;53.482;9.862;2023-01-30T12:57:35;100650.31;;;3.77;100.00
23241;BME280;11789;53.482;9.862;2023-01-30T13:00:22;100656.41;;;3.82;100.00
23241;BME280;11789;53.482;9.862;2023-01-30T13:05:44;100656.03;;;4.05;100.00
23241;BME280;11789;53.482;9.862;2023-01-30T13:08:36;100657.19;;;4.18;100.00
23241;BME280;11789;53.482;9.862;2023-01-30T13:22:48;100681.59;;;4.41;100.00
23241;BME280;11789;53.482;9.862;2023-01-30T13:27:58;100691.88;;;4.44;100.00
23241;BME280;11789;53.482;9.862;2023-01-30T13:30:28;100699.56;;;4.44;100.00
23241;BME280;11789;53.482;9.862;2023-01-30T13:33:03;100692.84;;;4.51;100.00
23241;BME280;11789;53.482;9.862;2023-01-30T13:35:45;100685.34;;;4.58;100.00
23241;BME280;11789;53.482;9.862;2023-01-30T13:38:18;100687.09;;;4.61;100.00
23241;BME280;11789;53.482;9.862;2023-01-30T13:40:47;100689.62;;;4.58;100.00
23241;BME280;11789;53.482;9.862;2023-01-30T13:46:23;100690.44;;;4.57;100.00
23241;BME280;11789;53.482;9.862;2023-01-30T13:59:29;100733.47;;;4.75;100.00
23241;BME280;11789;53.482;9.862;2023-01-30T14:09:40;100754.09;;;4.81;100.00
23241;BME280;11789;53.482;9.862;2023-01-30T14:12:23;100780.56;;;4.81;100.00
23241;BME280;11789;53.482;9.862;2023-01-30T14:20:24;100778.78;;;4.77;100.00
23241;BME280;11789;53.482;9.862;2023-01-30T14:22:53;100793.31;;;4.77;100.00
23241;BME280;11789;53.482;9.862;2023-01-30T14:38:19;100827.63;;;4.86;100.00
23241;BME280;11789;53.482;9.862;2023-01-30T14:45:56;100871.25;;;4.89;100.00
23241;BME280;11789;53.482;9.862;2023-01-30T14:54:19;100897.97;;;5.01;100.00
23241;BME280;11789;53.482;9.862;2023-01-30T14:56:51;100891.25;;;5.06;100.00
23241;BME280;11789;53.482;9.862;2023-01-30T15:02:37;100915.13;;;5.03;100.00
23241;BME280;11789;53.482;9.862;2023-01-30T15:05:12;100916.03;;;5.07;100.00
23241;BME280;11789;53.482;9.862;2023-01-30T15:07:43;100921.16;;;5.07;100.00
23241;BME280;11789;53.482;9.862;2023-01-30T15:18:12;100952.75;;;5.06;100.00
23241;BME280;11789;53.482;9.862;2023-01-30T15:32:00;101008.03;;;4.96;100.00
23241;BME280;11789;53.482;9.862;2023-01-30T15:34:27;101019.97;;;4.95;100.00
23241;BME280;11789;53.482;9.862;2023-01-30T15:36:53;101030.97;;;4.91;100.00
23241;BME280;11789;53.482;9.862;2023-01-30T15:39:24;101030.91;;;4.88;100.00
23241;BME280;11789;53.482;9.862;2023-01-30T15:41:51;101036.69;;;4.81;100.00
23241;BME280;11789;53.482;9.862;2023-01-30T15:49:58;101053.56;;;4.73;100.00
23241;BME280;11789;53.482;9.862;2023-01-30T15:52:38;101049.16;;;4.67;100.00
23241;BME280;11789;53.482;9.862;2023-01-30T15:55:05;101059.41;;;4.67;100.00
23241;BME280;11789;53.482;9.862;2023-01-30T15:57:35;101068.84;;;4.70;99.54
23241;BME280;11789;53.482;9.862;2023-01-30T16:00:04;101083.28;;;4.66;99.86
23241;BME280;11789;53.482;9.862;2023-01-30T16:02:35;101082.34;;;4.63;100.00
23241;BME280;11789;53.482;9.862;2023-01-30T16:05:13;101103.66;;;4.62;100.00
23241;BME280;11789;53.482;9.862;2023-01-30T16:07:40;101113.78;;;4.59;100.00